createdAt,value
2017-12-20T00:01:05.258Z,1.87
2017-12-20T00:06:06.077Z,1.78
2017-12-20T00:11:06.882Z,1.75
2017-12-20T00:16:10.777Z,1.75
2017-12-20T00:21:12.361Z,1.71
2017-12-20T00:26:13.185Z,1.49
2017-12-20T00:31:13.966Z,1.43
2017-12-20T00:36:14.783Z,1.38
2017-12-20T00:41:29.173Z,1.29
2017-12-20T00:46:29.965Z,1.29
2017-12-20T00:51:30.749Z,1.28
2017-12-20T00:56:31.545Z,1.31
2017-12-20T01:01:32.343Z,1.31
2017-12-20T01:06:33.162Z,1.33
2017-12-20T01:11:37.564Z,1.42
2017-12-20T01:16:38.345Z,1.41
2017-12-20T01:21:39.161Z,1.45
2017-12-20T01:26:39.959Z,1.38
2017-12-20T01:31:40.771Z,1.39
2017-12-20T01:36:41.622Z,1.47
2017-12-20T01:41:42.493Z,1.50
2017-12-20T01:46:43.358Z,1.45
2017-12-20T01:51:44.176Z,1.47
2017-12-20T01:56:44.985Z,1.52
2017-12-20T02:01:45.782Z,1.52
2017-12-20T02:06:46.599Z,1.56
2017-12-20T02:11:47.441Z,1.55
2017-12-20T02:16:48.256Z,1.61
2017-12-20T02:22:13.588Z,1.53
2017-12-20T02:27:14.383Z,1.46
2017-12-20T02:32:15.204Z,1.46
2017-12-20T02:37:16.043Z,1.44
2017-12-20T02:42:16.879Z,1.38
2017-12-20T02:47:17.697Z,1.48
2017-12-20T02:52:31.678Z,1.45
2017-12-20T02:57:32.485Z,1.50
2017-12-20T03:02:33.273Z,1.59
2017-12-20T03:07:34.077Z,1.70
2017-12-20T03:12:34.875Z,1.72
2017-12-20T03:17:35.717Z,1.72
2017-12-20T03:22:36.522Z,1.79
2017-12-20T03:27:37.313Z,1.81
2017-12-20T03:32:38.106Z,1.85
2017-12-20T03:37:49.302Z,1.77
2017-12-20T03:42:50.100Z,1.78
2017-12-20T03:47:50.911Z,1.76
2017-12-20T03:52:51.706Z,1.72
2017-12-20T03:57:52.541Z,1.74
2017-12-20T04:02:53.342Z,1.72
2017-12-20T04:07:54.157Z,1.74
2017-12-20T04:13:16.345Z,1.70
2017-12-20T04:18:17.150Z,1.70
2017-12-20T04:23:17.958Z,1.77
2017-12-20T04:28:18.765Z,1.76
2017-12-20T04:33:19.558Z,1.69
2017-12-20T04:38:20.362Z,1.77
2017-12-20T04:43:21.160Z,1.76
2017-12-20T04:48:28.528Z,1.83
2017-12-20T04:53:29.416Z,1.89
2017-12-20T04:58:30.201Z,1.81
2017-12-20T05:03:31.044Z,1.79
2017-12-20T05:08:31.817Z,1.79
2017-12-20T05:13:32.659Z,1.82
2017-12-20T05:18:33.476Z,1.88
2017-12-20T05:23:36.333Z,1.89
2017-12-20T05:28:37.151Z,1.87
2017-12-20T05:33:37.945Z,1.94
2017-12-20T05:38:38.772Z,2.02
2017-12-20T05:43:39.570Z,2.00
2017-12-20T05:48:40.398Z,2.03
2017-12-20T05:53:48.096Z,2.04
2017-12-20T05:59:13.534Z,2.10
2017-12-20T06:04:14.322Z,2.14
2017-12-20T06:09:21.593Z,2.13
2017-12-20T06:14:22.399Z,2.13
2017-12-20T06:19:23.253Z,2.05
2017-12-20T06:24:24.033Z,1.98
2017-12-20T06:29:24.938Z,1.98
2017-12-20T06:34:25.775Z,2.01
2017-12-20T06:39:26.622Z,2.01
2017-12-20T06:44:27.440Z,2.04
2017-12-20T06:49:28.240Z,2.02
2017-12-20T06:54:29.025Z,2.07
2017-12-20T06:59:29.824Z,2.11
2017-12-20T07:04:47.881Z,2.18
2017-12-20T07:09:48.689Z,2.19
2017-12-20T07:14:49.489Z,2.16
2017-12-20T07:19:50.267Z,2.18
2017-12-20T07:24:51.058Z,2.19
2017-12-20T07:29:51.862Z,2.31
2017-12-20T07:34:52.682Z,2.32
2017-12-20T07:39:53.499Z,2.20
2017-12-20T07:44:54.320Z,2.30
2017-12-20T07:49:55.163Z,2.28
2017-12-20T07:54:56.032Z,2.35
2017-12-20T07:59:56.885Z,2.34
2017-12-20T08:04:57.749Z,2.40
2017-12-20T08:09:58.586Z,2.41
2017-12-20T08:14:59.429Z,2.41
2017-12-20T08:20:00.263Z,2.31
2017-12-20T08:25:01.141Z,2.40
2017-12-20T08:30:01.963Z,2.56
2017-12-20T08:35:02.857Z,2.58
2017-12-20T08:40:03.681Z,2.57
2017-12-20T08:45:04.520Z,2.65
2017-12-20T08:50:05.359Z,2.90
2017-12-20T08:55:06.225Z,2.85
2017-12-20T09:00:07.093Z,2.97
2017-12-20T09:05:23.883Z,3.07
2017-12-20T09:10:28.686Z,3.05
2017-12-20T09:15:29.489Z,3.21
2017-12-20T09:20:41.375Z,3.39
2017-12-20T09:25:42.209Z,3.38
2017-12-20T09:30:43.066Z,3.19
2017-12-20T09:35:43.931Z,3.59
2017-12-20T09:40:44.796Z,3.63
2017-12-20T09:45:45.633Z,3.94
2017-12-20T09:50:46.458Z,4.07
2017-12-20T09:55:47.313Z,4.23
2017-12-20T10:00:51.743Z,4.34
2017-12-20T10:05:52.584Z,4.45
2017-12-20T10:10:53.397Z,4.48
2017-12-20T10:15:54.476Z,4.30
2017-12-20T10:20:59.806Z,4.52
2017-12-20T10:26:05.294Z,4.58
2017-12-20T10:31:06.286Z,4.16
2017-12-20T10:36:07.347Z,3.99
2017-12-20T10:41:10.417Z,4.14
2017-12-20T10:46:11.510Z,4.14
2017-12-20T10:51:12.518Z,4.00
2017-12-20T10:56:13.619Z,4.29
2017-12-20T11:01:15.063Z,4.77
2017-12-20T11:06:16.278Z,4.67
2017-12-20T11:11:17.484Z,4.99
2017-12-20T11:16:18.591Z,4.43
2017-12-20T11:21:19.603Z,4.30
2017-12-20T11:26:27.174Z,4.66
2017-12-20T11:31:29.322Z,4.63
2017-12-20T11:36:30.578Z,4.51
2017-12-20T11:41:31.637Z,4.29
2017-12-20T11:46:32.752Z,3.91
2017-12-20T11:51:46.673Z,3.95
2017-12-20T11:56:55.654Z,3.81
2017-12-20T12:07:32.876Z,3.92
2017-12-20T12:12:33.882Z,4.00
2017-12-20T12:17:34.996Z,4.24
2017-12-20T12:22:36.085Z,4.10
2017-12-20T12:27:37.216Z,4.19
2017-12-20T12:32:53.660Z,4.06
2017-12-20T12:37:59.862Z,3.95
2017-12-20T12:48:39.398Z,3.95
2017-12-20T12:59:21.957Z,3.92
2017-12-20T13:04:49.020Z,4.08
2017-12-20T13:15:30.234Z,4.19
2017-12-20T13:20:31.323Z,4.24
2017-12-20T13:25:32.368Z,4.01
2017-12-20T13:30:33.415Z,4.10
2017-12-20T13:35:34.457Z,3.85
2017-12-20T13:40:35.535Z,3.86
2017-12-20T13:45:56.184Z,3.98
2017-12-20T13:50:57.317Z,4.02
2017-12-20T13:55:58.350Z,3.91
2017-12-20T14:00:59.439Z,3.96
2017-12-20T14:06:00.477Z,3.93
2017-12-20T14:27:25.234Z,3.85
2017-12-20T14:32:26.298Z,3.86
2017-12-20T14:37:30.391Z,3.81
2017-12-20T14:42:31.483Z,3.83
2017-12-20T14:47:32.531Z,3.71
2017-12-20T14:52:40.369Z,3.71
2017-12-20T14:57:41.398Z,3.55
2017-12-20T15:02:42.462Z,3.27
2017-12-20T15:07:43.489Z,3.26
2017-12-20T15:12:44.548Z,3.19
2017-12-20T15:17:45.601Z,3.14
2017-12-20T15:22:46.698Z,3.10
2017-12-20T15:27:49.772Z,3.06
2017-12-20T15:32:50.877Z,3.02
2017-12-20T15:37:51.967Z,3.06
2017-12-20T15:42:52.965Z,3.10
2017-12-20T15:47:54.970Z,3.01
2017-12-20T15:53:01.021Z,2.99
2017-12-20T15:58:07.814Z,3.02
2017-12-20T16:03:08.800Z,3.00
2017-12-20T16:08:09.972Z,2.97
2017-12-20T16:13:11.002Z,3.01
2017-12-20T16:18:12.050Z,3.00
2017-12-20T16:23:17.830Z,2.88
2017-12-20T16:28:19.601Z,2.85
2017-12-20T16:33:20.694Z,2.84
2017-12-20T16:38:23.831Z,2.77
2017-12-20T16:43:25.975Z,2.83
2017-12-20T16:48:27.074Z,2.81
2017-12-20T16:53:40.451Z,2.75
2017-12-20T16:58:41.538Z,2.77
2017-12-20T17:03:43.064Z,2.75
2017-12-20T17:08:48.941Z,2.67
2017-12-20T17:13:50.011Z,2.63
2017-12-20T17:18:56.604Z,2.66
2017-12-20T17:23:57.763Z,2.64
2017-12-20T17:29:00.882Z,2.61
2017-12-20T17:34:01.976Z,2.66
2017-12-20T17:39:02.988Z,2.72
2017-12-20T17:44:04.814Z,2.72
2017-12-20T17:49:23.328Z,2.75
2017-12-20T17:54:24.449Z,2.66
2017-12-20T17:59:25.527Z,2.61
2017-12-20T18:04:34.499Z,2.66
2017-12-20T18:09:35.701Z,2.62
2017-12-20T18:14:36.757Z,2.69
2017-12-20T18:19:37.820Z,2.76
2017-12-20T18:24:42.202Z,2.70
2017-12-20T18:29:49.882Z,2.61
2017-12-20T18:34:51.041Z,2.51
2017-12-20T18:39:52.027Z,2.43
2017-12-20T18:44:53.173Z,2.49
2017-12-20T18:49:54.188Z,2.51
2017-12-20T18:54:55.301Z,2.59
2017-12-20T18:59:56.281Z,2.59
2017-12-20T19:04:59.411Z,2.57
2017-12-20T19:10:00.480Z,2.43
2017-12-20T19:15:02.723Z,2.35
2017-12-20T19:20:03.938Z,2.14
2017-12-20T19:25:12.651Z,2.31
2017-12-20T19:30:13.719Z,2.35
2017-12-20T19:35:16.881Z,2.44
2017-12-20T19:40:17.973Z,2.47
2017-12-20T19:45:19.110Z,2.49
2017-12-20T19:50:20.187Z,2.46
2017-12-20T19:55:21.174Z,2.37
2017-12-20T20:00:22.292Z,2.50
2017-12-20T20:05:23.327Z,2.48
2017-12-20T20:10:24.433Z,2.43
2017-12-20T20:15:26.297Z,2.49
2017-12-20T20:20:27.379Z,2.45
2017-12-20T20:25:28.470Z,2.49
2017-12-20T20:30:29.503Z,2.46
2017-12-20T20:35:30.516Z,2.55
2017-12-20T20:40:34.885Z,2.53
2017-12-20T20:45:41.915Z,2.68
2017-12-20T20:50:42.740Z,2.78
2017-12-20T20:55:43.631Z,2.85
2017-12-20T21:00:51.202Z,3.00
2017-12-20T21:05:54.135Z,2.92
2017-12-20T21:10:55.005Z,2.97
2017-12-20T21:15:55.891Z,3.00
2017-12-20T21:20:56.776Z,2.95
2017-12-20T21:25:57.673Z,2.87
2017-12-20T21:30:58.553Z,2.77
2017-12-20T21:36:01.164Z,2.77
2017-12-20T21:41:02.077Z,2.74
2017-12-20T21:46:06.513Z,2.67
2017-12-20T21:51:14.125Z,2.63
2017-12-20T21:56:14.992Z,2.70
2017-12-20T22:01:15.904Z,2.58
2017-12-20T22:06:16.780Z,2.47
2017-12-20T22:11:18.685Z,2.44
2017-12-20T22:16:19.572Z,2.45
2017-12-20T22:21:23.923Z,2.48
2017-12-20T22:26:24.824Z,2.39
2017-12-20T22:31:26.729Z,2.39
2017-12-20T22:36:27.616Z,2.37
2017-12-20T22:41:28.504Z,2.35
2017-12-20T22:46:29.354Z,2.44
2017-12-20T22:51:30.260Z,2.40
2017-12-20T22:56:31.160Z,2.43
2017-12-20T23:01:35.418Z,2.44
2017-12-20T23:06:39.705Z,2.41
2017-12-20T23:11:40.557Z,2.34
2017-12-20T23:16:41.447Z,2.47
2017-12-20T23:21:42.373Z,2.46
2017-12-20T23:26:43.222Z,2.46
2017-12-20T23:31:44.128Z,2.53
2017-12-20T23:36:45.035Z,2.51
2017-12-20T23:41:45.868Z,2.50
2017-12-20T23:46:46.751Z,2.40
2017-12-20T23:51:47.575Z,2.47
2017-12-20T23:56:48.421Z,2.54
